createdAt,value
2017-09-02T00:01:01.420Z,0
2017-09-02T00:02:10.271Z,0
2017-09-02T00:03:19.276Z,0
2017-09-02T00:04:28.127Z,0
2017-09-02T00:05:37.313Z,0
2017-09-02T00:06:46.166Z,0
2017-09-02T00:07:55.021Z,0
2017-09-02T00:09:03.917Z,0
2017-09-02T00:10:12.769Z,0
2017-09-02T00:11:21.622Z,0
2017-09-02T00:12:30.476Z,0
2017-09-02T00:13:39.676Z,0
2017-09-02T00:14:48.527Z,0
2017-09-02T00:15:57.380Z,0
2017-09-02T00:17:06.242Z,0
2017-09-02T00:18:15.119Z,0
2017-09-02T00:19:23.947Z,0
2017-09-02T00:20:32.798Z,0
2017-09-02T00:21:41.983Z,0
2017-09-02T00:22:50.835Z,0
2017-09-02T00:23:59.685Z,0
2017-09-02T00:25:08.536Z,0
2017-09-02T00:26:17.487Z,0
2017-09-02T00:27:26.339Z,0
2017-09-02T00:28:35.529Z,0
2017-09-02T00:29:44.379Z,0
2017-09-02T00:30:53.229Z,0
2017-09-02T00:32:02.190Z,0
2017-09-02T00:33:11.375Z,0
2017-09-02T00:34:20.227Z,0
2017-09-02T00:35:29.076Z,0
2017-09-02T00:36:37.925Z,0
2017-09-02T00:37:46.776Z,0
2017-09-02T00:38:55.630Z,0
2017-09-02T00:40:04.482Z,0
2017-09-02T00:41:13.337Z,0
2017-09-02T00:42:22.186Z,0
2017-09-02T00:43:31.238Z,0
2017-09-02T00:44:40.098Z,0
2017-09-02T00:45:48.938Z,0
2017-09-02T00:46:57.787Z,0
2017-09-02T00:48:06.634Z,0
2017-09-02T00:49:15.786Z,0
2017-09-02T00:50:24.637Z,0
2017-09-02T00:51:33.487Z,0
2017-09-02T00:52:42.338Z,0
2017-09-02T00:53:51.190Z,0
2017-09-02T00:55:00.201Z,0
2017-09-02T00:56:09.050Z,0
2017-09-02T00:57:17.901Z,0
2017-09-02T00:58:26.753Z,0
2017-09-02T00:59:35.601Z,0
2017-09-02T01:00:44.500Z,0
2017-09-02T01:01:53.351Z,0
2017-09-02T01:03:02.198Z,0
2017-09-02T01:04:11.380Z,0
2017-09-02T01:05:20.572Z,0
2017-09-02T01:06:30.058Z,0
2017-09-02T01:07:38.910Z,0
2017-09-02T01:08:47.762Z,0
2017-09-02T01:09:56.614Z,0
2017-09-02T01:11:05.462Z,0
2017-09-02T01:12:14.415Z,0
2017-09-02T01:13:23.268Z,0
2017-09-02T01:14:32.450Z,0
2017-09-02T01:15:41.301Z,0
2017-09-02T01:16:50.152Z,0
2017-09-02T01:17:59.006Z,0
2017-09-02T01:19:07.856Z,0
2017-09-02T01:20:16.706Z,0
2017-09-02T01:21:25.558Z,0
2017-09-02T01:22:34.408Z,0
2017-09-02T01:23:43.361Z,0
2017-09-02T01:24:52.214Z,0
2017-09-02T01:26:01.067Z,0
2017-09-02T01:27:09.913Z,0
2017-09-02T01:28:18.763Z,0
2017-09-02T01:29:27.764Z,0
2017-09-02T01:30:36.615Z,0
2017-09-02T01:31:45.466Z,0
2017-09-02T01:32:54.320Z,0
2017-09-02T01:34:03.173Z,0
2017-09-02T01:35:12.073Z,0
2017-09-02T01:36:20.924Z,0
2017-09-02T01:37:29.775Z,0
2017-09-02T01:38:38.625Z,0
2017-09-02T01:39:47.477Z,0
2017-09-02T01:40:56.476Z,0
2017-09-02T01:42:05.327Z,0
2017-09-02T01:43:14.172Z,0
2017-09-02T01:44:23.356Z,0
2017-09-02T01:45:32.206Z,0
2017-09-02T01:46:41.155Z,0
2017-09-02T01:47:50.006Z,0
2017-09-02T01:48:58.855Z,0
2017-09-02T01:50:07.706Z,0
2017-09-02T01:51:16.554Z,0
2017-09-02T01:52:25.556Z,0
2017-09-02T01:53:34.406Z,0
2017-09-02T01:54:43.255Z,0
2017-09-02T01:55:52.446Z,0
2017-09-02T01:57:01.294Z,0
2017-09-02T01:58:10.143Z,0
2017-09-02T01:59:18.991Z,0
2017-09-02T02:00:27.839Z,0
2017-09-02T02:01:36.689Z,0
2017-09-02T02:02:45.539Z,0
2017-09-02T02:03:54.440Z,0
2017-09-02T02:05:03.286Z,0
2017-09-02T02:06:12.137Z,0
2017-09-02T02:07:20.991Z,0
2017-09-02T02:08:29.844Z,0
2017-09-02T02:09:38.745Z,0
2017-09-02T02:10:47.924Z,0
2017-09-02T02:11:56.775Z,0
2017-09-02T02:13:05.624Z,0
2017-09-02T02:14:14.477Z,0
2017-09-02T02:15:23.629Z,0
2017-09-02T02:16:32.488Z,0
2017-09-02T02:17:41.670Z,0
2017-09-02T02:18:50.518Z,0
2017-09-02T02:19:59.372Z,0
2017-09-02T02:21:08.276Z,0
2017-09-02T02:22:17.124Z,0
2017-09-02T02:23:25.975Z,0
2017-09-02T02:24:34.822Z,0
2017-09-02T02:25:43.676Z,0
2017-09-02T02:26:52.523Z,0
2017-09-02T02:28:01.422Z,0
2017-09-02T02:29:10.604Z,0
2017-09-02T02:30:19.453Z,0
2017-09-02T02:31:28.307Z,0
2017-09-02T02:32:37.207Z,0
2017-09-02T02:33:46.057Z,0
2017-09-02T02:34:54.906Z,0
2017-09-02T02:36:03.758Z,0
2017-09-02T02:37:12.605Z,0
2017-09-02T02:38:21.502Z,0
2017-09-02T02:39:30.354Z,0
2017-09-02T02:40:39.199Z,0
2017-09-02T02:41:48.046Z,0
2017-09-02T02:42:56.890Z,0
2017-09-02T02:44:05.879Z,0
2017-09-02T02:45:14.724Z,0
2017-09-02T02:46:23.566Z,0
2017-09-02T02:47:32.410Z,0
2017-09-02T02:48:41.254Z,0
2017-09-02T02:49:50.400Z,0
2017-09-02T02:50:59.243Z,0
2017-09-02T02:52:08.436Z,0
2017-09-02T02:53:17.267Z,0
2017-09-02T02:54:26.113Z,0
2017-09-02T02:55:35.009Z,0
2017-09-02T02:56:43.855Z,0
2017-09-02T02:57:52.698Z,0
2017-09-02T02:59:01.542Z,0
2017-09-02T03:00:10.388Z,0
2017-09-02T03:01:19.228Z,0
2017-09-02T03:02:28.404Z,0
2017-09-02T03:03:37.248Z,0
2017-09-02T03:04:46.088Z,0
2017-09-02T03:05:54.935Z,0
2017-09-02T03:07:03.977Z,0
2017-09-02T03:08:12.822Z,0
2017-09-02T03:09:21.670Z,0
2017-09-02T03:10:30.845Z,0
2017-09-02T03:11:39.687Z,0
2017-09-02T03:12:48.782Z,0
2017-09-02T03:13:57.627Z,0
2017-09-02T03:15:06.475Z,0
2017-09-02T03:16:15.315Z,0
2017-09-02T03:17:24.160Z,0
2017-09-02T03:18:33.056Z,0
2017-09-02T03:19:41.899Z,0
2017-09-02T03:20:50.741Z,0
2017-09-02T03:21:59.584Z,0
2017-09-02T03:23:08.426Z,0
2017-09-02T03:24:17.574Z,0
2017-09-02T03:25:26.747Z,0
2017-09-02T03:26:35.590Z,0
2017-09-02T03:27:44.436Z,0
2017-09-02T03:28:53.280Z,0
2017-09-02T03:30:02.428Z,0
2017-09-02T03:31:11.264Z,0
2017-09-02T03:32:20.110Z,0
2017-09-02T03:33:28.953Z,0
2017-09-02T03:34:37.799Z,0
2017-09-02T03:35:47.039Z,0
2017-09-02T03:36:55.887Z,0
2017-09-02T03:38:04.730Z,0
2017-09-02T03:39:13.910Z,0
2017-09-02T03:40:22.753Z,0
2017-09-02T03:41:31.696Z,0
2017-09-02T03:42:40.538Z,0
2017-09-02T03:43:49.383Z,0
2017-09-02T03:44:58.227Z,0
2017-09-02T03:46:07.071Z,0
2017-09-02T03:47:15.914Z,0
2017-09-02T03:48:24.756Z,0
2017-09-02T03:49:33.599Z,0
2017-09-02T03:50:42.440Z,0
2017-09-02T03:51:51.282Z,0
2017-09-02T03:53:00.278Z,0
2017-09-02T03:54:09.121Z,0
2017-09-02T03:55:17.966Z,0
2017-09-02T03:56:26.810Z,0
2017-09-02T03:57:35.987Z,0
2017-09-02T03:58:44.981Z,0
2017-09-02T03:59:53.824Z,0
2017-09-02T04:01:02.666Z,0
2017-09-02T04:02:11.509Z,0
2017-09-02T04:03:20.353Z,0
2017-09-02T04:04:29.344Z,0
2017-09-02T04:05:38.188Z,0
2017-09-02T04:06:47.033Z,0
2017-09-02T04:07:55.876Z,0
2017-09-02T04:09:04.718Z,0
2017-09-02T04:10:13.760Z,0
2017-09-02T04:11:22.606Z,4
2017-09-02T04:12:31.448Z,4
2017-09-02T04:13:40.290Z,0
2017-09-02T04:14:49.140Z,4
2017-09-02T04:15:58.414Z,4
2017-09-02T04:17:07.255Z,4
2017-09-02T04:18:16.427Z,4
2017-09-02T04:19:25.273Z,8
2017-09-02T04:20:34.108Z,12
2017-09-02T04:21:43.048Z,12
2017-09-02T04:22:51.890Z,12
2017-09-02T04:24:00.731Z,16
2017-09-02T04:25:09.571Z,20
2017-09-02T04:26:18.411Z,24
2017-09-02T04:27:27.402Z,32
2017-09-02T04:28:36.244Z,32
2017-09-02T04:29:45.089Z,40
2017-09-02T04:30:53.931Z,44
2017-09-02T04:32:02.772Z,48
2017-09-02T04:33:11.764Z,56
2017-09-02T04:34:20.604Z,60
2017-09-02T04:35:29.460Z,64
2017-09-02T04:36:38.651Z,68
2017-09-02T04:37:47.490Z,76
2017-09-02T04:38:56.334Z,88
2017-09-02T04:40:05.174Z,96
2017-09-02T04:41:14.014Z,104
2017-09-02T04:42:22.855Z,112
2017-09-02T04:43:31.695Z,128
2017-09-02T04:44:40.636Z,140
2017-09-02T04:45:49.476Z,152
2017-09-02T04:46:58.319Z,164
2017-09-02T04:48:07.157Z,176
2017-09-02T04:49:15.997Z,188
2017-09-02T04:50:25.321Z,200
2017-09-02T04:51:34.163Z,216
2017-09-02T04:52:43.010Z,228
2017-09-02T04:53:51.851Z,240
2017-09-02T04:55:00.693Z,256
2017-09-02T04:56:09.837Z,272
2017-09-02T04:57:18.678Z,284
2017-09-02T04:58:27.522Z,296
2017-09-02T04:59:36.361Z,312
2017-09-02T05:00:45.203Z,328
2017-09-02T05:01:54.049Z,340
2017-09-02T05:03:02.893Z,348
2017-09-02T05:04:11.740Z,364
2017-09-02T05:05:20.584Z,372
2017-09-02T05:06:29.430Z,384
2017-09-02T05:07:38.272Z,400
2017-09-02T05:08:47.117Z,412
2017-09-02T05:09:55.960Z,424
2017-09-02T05:11:05.133Z,436
2017-09-02T05:12:13.975Z,444
2017-09-02T05:13:23.018Z,456
2017-09-02T05:14:31.861Z,460
2017-09-02T05:15:40.706Z,472
2017-09-02T05:16:49.549Z,480
2017-09-02T05:17:58.395Z,492
2017-09-02T05:19:07.385Z,500
2017-09-02T05:20:16.231Z,512
2017-09-02T05:21:25.079Z,524
2017-09-02T05:22:33.922Z,532
2017-09-02T05:23:42.768Z,544
2017-09-02T05:24:51.764Z,556
2017-09-02T05:26:00.608Z,572
2017-09-02T05:27:09.454Z,588
2017-09-02T05:28:18.297Z,600
2017-09-02T05:29:27.141Z,608
2017-09-02T05:30:35.988Z,624
2017-09-02T05:31:44.831Z,636
2017-09-02T05:32:53.674Z,652
2017-09-02T05:34:02.517Z,668
2017-09-02T05:35:11.362Z,688
2017-09-02T05:36:20.257Z,704
2017-09-02T05:37:29.101Z,716
2017-09-02T05:38:37.947Z,728
2017-09-02T05:39:46.791Z,744
2017-09-02T05:40:55.634Z,756
2017-09-02T05:42:04.527Z,768
2017-09-02T05:43:13.370Z,780
2017-09-02T05:44:22.210Z,792
2017-09-02T05:45:31.386Z,804
2017-09-02T05:46:40.565Z,812
2017-09-02T05:47:49.460Z,824
2017-09-02T05:48:58.632Z,832
2017-09-02T05:50:07.475Z,844
2017-09-02T05:51:16.319Z,852
2017-09-02T05:52:25.161Z,864
2017-09-02T05:53:34.153Z,872
2017-09-02T05:54:42.995Z,876
2017-09-02T05:55:51.835Z,884
2017-09-02T05:57:00.676Z,892
2017-09-02T05:58:09.519Z,900
2017-09-02T05:59:18.749Z,904
2017-09-02T06:00:27.592Z,908
2017-09-02T06:01:36.770Z,916
2017-09-02T06:02:45.611Z,920
2017-09-02T06:03:54.452Z,928
2017-09-02T06:05:03.448Z,936
2017-09-02T06:06:12.620Z,944
2017-09-02T06:07:21.472Z,956
2017-09-02T06:08:30.312Z,964
2017-09-02T06:09:39.154Z,968
2017-09-02T06:10:48.046Z,972
2017-09-02T06:11:56.888Z,976
2017-09-02T06:13:05.731Z,980
2017-09-02T06:14:14.573Z,988
2017-09-02T06:15:23.751Z,996
2017-09-02T06:16:32.645Z,1000
2017-09-02T06:17:41.492Z,1004
2017-09-02T06:18:50.663Z,1004
2017-09-02T06:19:59.838Z,1008
2017-09-02T06:21:08.682Z,1012
2017-09-02T06:22:17.677Z,1016
2017-09-02T06:23:26.523Z,1020
2017-09-02T06:24:35.364Z,1028
2017-09-02T06:25:44.206Z,1032
2017-09-02T06:26:53.047Z,1036
2017-09-02T06:28:02.192Z,1044
2017-09-02T06:29:11.031Z,1048
2017-09-02T06:30:19.877Z,1052
2017-09-02T06:31:28.726Z,1056
2017-09-02T06:32:37.563Z,1060
2017-09-02T06:33:46.408Z,1064
2017-09-02T06:34:55.247Z,1068
2017-09-02T06:36:04.088Z,1068
2017-09-02T06:37:12.999Z,1072
2017-09-02T06:38:21.885Z,1076
2017-09-02T06:39:31.031Z,1080
2017-09-02T06:40:40.096Z,1084
2017-09-02T06:41:48.979Z,1092
2017-09-02T06:42:58.109Z,1096
2017-09-02T06:44:06.993Z,1104
2017-09-02T06:45:16.115Z,1108
2017-09-02T06:46:25.233Z,1112
2017-09-02T06:47:34.132Z,1120
2017-09-02T06:48:43.014Z,1124
2017-09-02T06:49:51.860Z,1128
2017-09-02T06:51:01.056Z,1136
2017-09-02T06:52:09.900Z,1140
2017-09-02T06:53:19.083Z,1140
2017-09-02T06:54:27.928Z,1144
2017-09-02T06:55:36.773Z,1144
2017-09-02T06:56:45.616Z,1148
2017-09-02T06:57:54.461Z,1152
2017-09-02T06:59:03.306Z,1152
2017-09-02T07:00:12.150Z,1160
2017-09-02T07:01:20.996Z,1164
2017-09-02T07:02:29.840Z,1172
2017-09-02T07:03:38.691Z,1176
2017-09-02T07:04:47.535Z,1184
2017-09-02T07:05:56.713Z,1188
2017-09-02T07:07:05.558Z,1192
2017-09-02T07:08:14.405Z,1200
2017-09-02T07:09:23.245Z,1200
2017-09-02T07:10:32.091Z,1208
2017-09-02T07:11:41.087Z,1212
2017-09-02T07:12:49.934Z,1212
2017-09-02T07:13:58.785Z,1216
2017-09-02T07:15:07.625Z,1220
2017-09-02T07:16:16.475Z,1224
2017-09-02T07:17:25.324Z,1224
2017-09-02T07:18:34.174Z,1232
2017-09-02T07:19:43.021Z,1232
2017-09-02T07:20:51.866Z,1236
2017-09-02T07:22:00.863Z,1240
2017-09-02T07:23:09.711Z,1244
2017-09-02T07:24:18.558Z,1248
2017-09-02T07:25:27.407Z,1252
2017-09-02T07:26:36.254Z,1256
2017-09-02T07:27:45.100Z,1256
2017-09-02T07:28:53.945Z,1260
2017-09-02T07:30:02.789Z,1264
2017-09-02T07:31:11.643Z,1268
2017-09-02T07:32:20.499Z,1276
2017-09-02T07:33:29.504Z,1276
2017-09-02T07:34:38.363Z,1280
2017-09-02T07:35:47.220Z,1280
2017-09-02T07:36:56.078Z,1284
2017-09-02T07:38:04.935Z,1288
2017-09-02T07:39:13.942Z,1292
2017-09-02T07:40:22.797Z,1300
2017-09-02T07:41:31.653Z,1308
2017-09-02T07:42:40.510Z,1312
2017-09-02T07:43:49.373Z,1320
2017-09-02T07:44:58.379Z,1324
2017-09-02T07:46:07.241Z,1324
2017-09-02T07:47:16.096Z,1332
2017-09-02T07:48:24.956Z,1336
2017-09-02T07:49:33.813Z,1340
2017-09-02T07:50:42.719Z,1336
2017-09-02T07:51:51.576Z,1336
2017-09-02T07:53:00.436Z,1344
2017-09-02T07:54:09.334Z,1360
2017-09-02T07:55:18.194Z,1360
2017-09-02T07:56:27.104Z,1360
2017-09-02T07:57:35.962Z,1372
2017-09-02T07:58:44.862Z,1376
2017-09-02T07:59:53.727Z,1376
2017-09-02T08:01:02.586Z,1384
2017-09-02T08:02:11.484Z,1396
2017-09-02T08:03:20.326Z,1408
2017-09-02T08:04:29.517Z,1416
2017-09-02T08:05:38.694Z,1412
2017-09-02T08:06:47.539Z,1412
2017-09-02T08:07:56.384Z,1424
2017-09-02T08:09:05.232Z,1412
2017-09-02T08:10:14.077Z,1408
2017-09-02T08:11:22.920Z,1420
2017-09-02T08:12:31.773Z,1424
2017-09-02T08:13:41.331Z,1424
2017-09-02T08:14:50.179Z,1436
2017-09-02T08:15:59.026Z,1444
2017-09-02T08:17:07.879Z,1444
2017-09-02T08:18:17.056Z,1456
2017-09-02T08:19:26.052Z,1460
2017-09-02T08:20:35.233Z,1452
2017-09-02T08:21:44.081Z,1456
2017-09-02T08:22:52.999Z,1456
2017-09-02T08:24:01.887Z,1464
2017-09-02T08:25:10.784Z,1472
2017-09-02T08:26:19.628Z,1484
2017-09-02T08:27:28.473Z,1500
2017-09-02T08:28:37.320Z,1524
2017-09-02T08:29:46.495Z,1616
2017-09-02T08:30:55.745Z,1644
2017-09-02T08:32:04.591Z,1580
2017-09-02T08:33:13.438Z,1568
2017-09-02T08:34:22.283Z,1564
2017-09-02T08:35:31.129Z,1580
2017-09-02T08:36:40.025Z,1592
2017-09-02T08:37:48.873Z,1608
2017-09-02T08:38:57.720Z,1608
2017-09-02T08:40:06.575Z,1648
2017-09-02T08:41:15.420Z,1700
2017-09-02T08:42:24.317Z,1676
2017-09-02T08:43:33.162Z,1656
2017-09-02T08:44:42.078Z,1668
2017-09-02T08:45:51.281Z,1696
2017-09-02T08:47:00.137Z,1716
2017-09-02T08:48:09.225Z,1764
2017-09-02T08:49:18.397Z,1836
2017-09-02T08:50:27.243Z,2164
2017-09-02T08:51:36.089Z,2276
2017-09-02T08:52:44.933Z,2488
2017-09-02T08:53:53.781Z,2716
2017-09-02T08:55:02.626Z,2820
2017-09-02T08:56:11.474Z,2960
2017-09-02T08:57:20.317Z,2976
2017-09-02T08:58:29.165Z,3292
2017-09-02T08:59:38.160Z,3732
2017-09-02T09:00:47.009Z,4172
2017-09-02T09:01:55.856Z,4668
2017-09-02T09:03:04.703Z,5056
2017-09-02T09:04:13.552Z,5288
2017-09-02T09:05:22.698Z,5020
2017-09-02T09:06:31.545Z,4448
2017-09-02T09:07:40.394Z,4524
2017-09-02T09:08:49.243Z,4980
2017-09-02T09:09:58.092Z,5256
2017-09-02T09:11:06.940Z,5188
2017-09-02T09:12:15.789Z,5380
2017-09-02T09:13:24.639Z,5868
2017-09-02T09:14:33.821Z,5592
2017-09-02T09:15:43.003Z,5208
2017-09-02T09:16:52.101Z,4960
2017-09-02T09:18:00.952Z,4840
2017-09-02T09:19:10.129Z,4452
2017-09-02T09:20:19.354Z,4004
2017-09-02T09:21:28.200Z,3464
2017-09-02T09:22:37.531Z,3164
2017-09-02T09:23:46.375Z,3048
2017-09-02T09:24:55.222Z,3264
2017-09-02T09:26:04.072Z,3248
2017-09-02T09:27:13.250Z,3172
2017-09-02T09:28:22.300Z,3128
2017-09-02T09:29:31.147Z,3068
2017-09-02T09:30:39.995Z,2896
2017-09-02T09:31:48.843Z,3036
2017-09-02T09:32:57.692Z,3296
2017-09-02T09:34:07.253Z,3460
2017-09-02T09:35:16.106Z,3480
2017-09-02T09:36:24.954Z,3820
2017-09-02T09:37:33.803Z,4296
2017-09-02T09:38:42.733Z,4628
2017-09-02T09:39:51.684Z,4628
2017-09-02T09:41:00.541Z,4480
2017-09-02T09:42:09.390Z,4488
2017-09-02T09:43:18.238Z,4644
2017-09-02T09:44:27.090Z,5228
2017-09-02T09:45:36.091Z,6228
2017-09-02T09:46:44.940Z,7444
2017-09-02T09:47:53.792Z,8364
2017-09-02T09:49:02.638Z,8404
2017-09-02T09:50:11.485Z,6732
2017-09-02T09:51:20.383Z,5380
2017-09-02T09:52:29.228Z,4384
2017-09-02T09:53:38.077Z,3784
2017-09-02T09:54:46.925Z,3328
2017-09-02T09:55:55.776Z,2936
2017-09-02T09:57:04.925Z,2588
2017-09-02T09:58:13.772Z,2308
2017-09-02T09:59:22.955Z,2248
2017-09-02T10:00:31.803Z,2372
2017-09-02T10:01:40.651Z,2424
2017-09-02T10:02:49.501Z,2420
2017-09-02T10:03:58.349Z,2528
2017-09-02T10:05:07.215Z,2716
2017-09-02T10:06:16.044Z,2880
2017-09-02T10:07:24.892Z,3068
2017-09-02T10:08:33.741Z,3356
2017-09-02T10:09:42.584Z,3476
2017-09-02T10:10:51.432Z,3608
2017-09-02T10:12:00.282Z,3836
2017-09-02T10:13:09.128Z,3828
2017-09-02T10:14:18.028Z,3772
2017-09-02T10:15:26.910Z,3652
2017-09-02T10:16:35.772Z,3324
2017-09-02T10:17:44.620Z,3012
2017-09-02T10:18:53.467Z,2912
2017-09-02T10:20:02.649Z,2896
2017-09-02T10:21:11.502Z,2912
2017-09-02T10:22:20.349Z,2956
2017-09-02T10:23:29.305Z,2996
2017-09-02T10:24:38.151Z,3036
2017-09-02T10:25:47.153Z,3044
2017-09-02T10:26:56.004Z,3108
2017-09-02T10:28:04.852Z,3224
2017-09-02T10:29:13.698Z,3536
2017-09-02T10:30:22.546Z,3968
2017-09-02T10:31:31.493Z,4412
2017-09-02T10:32:40.339Z,4896
2017-09-02T10:33:49.206Z,5340
2017-09-02T10:34:58.061Z,6132
2017-09-02T10:36:06.902Z,6656
2017-09-02T10:37:15.998Z,6184
2017-09-02T10:38:24.846Z,5944
2017-09-02T10:39:34.027Z,7732
2017-09-02T10:40:43.213Z,8452
2017-09-02T10:41:52.064Z,9136
2017-09-02T10:43:01.160Z,9868
2017-09-02T10:44:10.009Z,10532
2017-09-02T10:45:18.858Z,10696
2017-09-02T10:46:27.708Z,9988
2017-09-02T10:47:36.556Z,9056
2017-09-02T10:48:45.555Z,8172
2017-09-02T10:49:54.405Z,6456
2017-09-02T10:51:03.256Z,4924
2017-09-02T10:52:12.105Z,3628
2017-09-02T10:53:20.954Z,2840
2017-09-02T10:54:30.054Z,2272
2017-09-02T10:55:38.904Z,1996
2017-09-02T10:56:47.750Z,1768
2017-09-02T10:57:56.596Z,1628
2017-09-02T10:59:05.445Z,1556
2017-09-02T11:00:14.779Z,1540
2017-09-02T11:01:23.626Z,1604
2017-09-02T11:02:32.473Z,1756
2017-09-02T11:03:41.322Z,1952
2017-09-02T11:04:50.170Z,2112
2017-09-02T11:05:59.019Z,2272
2017-09-02T11:07:07.866Z,2408
2017-09-02T11:08:16.712Z,2540
2017-09-02T11:09:25.893Z,2700
2017-09-02T11:10:34.740Z,2852
2017-09-02T11:11:43.738Z,3108
2017-09-02T11:12:52.586Z,3440
2017-09-02T11:14:01.431Z,3788
2017-09-02T11:15:10.292Z,4168
2017-09-02T11:16:19.122Z,4528
2017-09-02T11:17:28.219Z,4872
2017-09-02T11:18:37.065Z,5040
2017-09-02T11:19:45.910Z,5032
2017-09-02T11:20:54.759Z,4972
2017-09-02T11:22:03.605Z,4680
2017-09-02T11:23:12.499Z,4268
2017-09-02T11:24:21.349Z,3904
2017-09-02T11:25:30.193Z,3616
2017-09-02T11:26:39.369Z,3336
2017-09-02T11:27:48.218Z,3144
2017-09-02T11:28:57.116Z,3016
2017-09-02T11:30:05.962Z,2872
2017-09-02T11:31:14.833Z,2696
2017-09-02T11:32:24.015Z,2568
2017-09-02T11:33:32.863Z,2572
2017-09-02T11:34:42.011Z,2652
2017-09-02T11:35:50.855Z,2772
2017-09-02T11:36:59.701Z,2932
2017-09-02T11:38:08.646Z,3088
2017-09-02T11:39:17.496Z,3232
2017-09-02T11:40:26.974Z,3424
2017-09-02T11:41:35.819Z,3720
2017-09-02T11:42:44.667Z,4100
2017-09-02T11:43:53.511Z,4460
2017-09-02T11:45:02.457Z,4864
2017-09-02T11:46:11.353Z,5240
2017-09-02T11:47:20.201Z,5520
2017-09-02T11:48:29.048Z,5652
2017-09-02T11:49:37.894Z,5744
2017-09-02T11:50:47.081Z,5876
2017-09-02T11:51:56.127Z,6056
2017-09-02T11:53:04.969Z,6248
2017-09-02T11:54:13.815Z,6584
2017-09-02T11:55:22.662Z,7008
2017-09-02T11:56:31.507Z,7856
2017-09-02T11:57:40.655Z,12152
2017-09-02T11:58:49.502Z,20800
2017-09-02T11:59:58.346Z,25376
2017-09-02T12:01:07.195Z,24576
2017-09-02T12:02:16.043Z,19968
2017-09-02T12:03:25.058Z,19776
2017-09-02T12:04:34.239Z,31616
2017-09-02T12:05:43.092Z,20064
2017-09-02T12:06:52.271Z,19712
2017-09-02T12:08:01.120Z,24192
2017-09-02T12:09:10.118Z,21216
2017-09-02T12:10:18.963Z,28192
2017-09-02T12:11:27.814Z,28320
2017-09-02T12:12:36.997Z,36896
2017-09-02T12:13:45.843Z,41792
2017-09-02T12:14:55.073Z,24384
2017-09-02T12:16:03.940Z,19200
2017-09-02T12:17:12.792Z,17280
2017-09-02T12:18:21.974Z,13140
2017-09-02T12:19:30.827Z,23360
2017-09-02T12:20:39.827Z,21696
2017-09-02T12:21:48.680Z,26464
2017-09-02T12:22:57.530Z,20096
2017-09-02T12:24:06.394Z,56992
2017-09-02T12:25:15.265Z,49568
2017-09-02T12:26:24.416Z,21600
2017-09-02T12:27:33.282Z,39968
2017-09-02T12:28:42.492Z,38880
2017-09-02T12:29:51.343Z,15384
2017-09-02T12:31:00.195Z,16832
2017-09-02T12:32:09.096Z,13616
2017-09-02T12:33:17.948Z,19712
2017-09-02T12:34:27.134Z,16000
2017-09-02T12:35:35.986Z,12104
2017-09-02T12:36:44.837Z,11016
2017-09-02T12:37:53.988Z,10728
2017-09-02T12:39:02.839Z,9820
2017-09-02T12:40:11.693Z,9724
2017-09-02T12:41:20.543Z,9820
2017-09-02T12:42:29.396Z,9696
2017-09-02T12:43:38.575Z,9188
2017-09-02T12:44:47.421Z,8612
2017-09-02T12:45:56.271Z,8180
2017-09-02T12:47:05.118Z,8056
2017-09-02T12:48:13.970Z,8164
2017-09-02T12:49:23.122Z,8248
2017-09-02T12:50:31.971Z,8296
2017-09-02T12:51:40.819Z,8364
2017-09-02T12:52:49.670Z,8420
2017-09-02T12:53:58.515Z,8368
2017-09-02T12:55:07.516Z,8268
2017-09-02T12:56:16.363Z,8188
2017-09-02T12:57:25.215Z,8124
2017-09-02T12:58:34.064Z,8136
2017-09-02T12:59:42.915Z,8236
2017-09-02T13:00:52.816Z,8176
2017-09-02T13:02:01.737Z,7908
2017-09-02T13:03:10.595Z,7256
2017-09-02T13:04:19.443Z,6912
2017-09-02T13:05:28.291Z,6660
2017-09-02T13:06:37.141Z,6440
2017-09-02T13:07:45.988Z,6340
2017-09-02T13:08:54.857Z,6188
2017-09-02T13:10:03.706Z,5948
2017-09-02T13:11:12.560Z,5932
2017-09-02T13:12:21.409Z,6152
2017-09-02T13:13:30.257Z,6440
2017-09-02T13:14:39.106Z,6700
2017-09-02T13:15:47.954Z,6916
2017-09-02T13:16:56.855Z,7144
2017-09-02T13:18:05.720Z,7428
2017-09-02T13:19:14.567Z,7824
2017-09-02T13:20:23.416Z,8276
2017-09-02T13:21:32.600Z,8596
2017-09-02T13:22:41.449Z,8896
2017-09-02T13:23:50.296Z,9188
2017-09-02T13:24:59.144Z,9628
2017-09-02T13:26:08.325Z,10476
2017-09-02T13:27:17.176Z,11256
2017-09-02T13:28:26.026Z,11240
2017-09-02T13:29:34.874Z,13568
2017-09-02T13:30:43.726Z,10624
2017-09-02T13:31:52.572Z,10156
2017-09-02T13:33:01.420Z,9836
2017-09-02T13:34:10.268Z,14092
2017-09-02T13:35:19.117Z,21088
2017-09-02T13:36:28.306Z,16288
2017-09-02T13:37:37.295Z,10772
2017-09-02T13:38:46.145Z,11680
2017-09-02T13:39:54.993Z,16864
2017-09-02T13:41:03.843Z,24288
2017-09-02T13:42:12.726Z,29504
2017-09-02T13:43:21.578Z,27904
2017-09-02T13:44:30.430Z,10576
2017-09-02T13:45:39.283Z,8280
2017-09-02T13:46:48.473Z,7544
2017-09-02T13:47:57.373Z,8024
2017-09-02T13:49:06.221Z,18688
2017-09-02T13:50:15.072Z,12640
2017-09-02T13:51:23.922Z,26592
2017-09-02T13:52:32.777Z,38240
2017-09-02T13:53:41.674Z,38784
2017-09-02T13:54:50.527Z,23744
2017-09-02T13:55:59.376Z,28128
2017-09-02T13:57:08.226Z,26592
2017-09-02T13:58:17.076Z,37824
2017-09-02T13:59:26.178Z,35296
2017-09-02T14:00:35.031Z,21024
2017-09-02T14:01:43.880Z,8348
2017-09-02T14:02:52.734Z,8872
2017-09-02T14:04:01.587Z,8656
2017-09-02T14:05:10.588Z,10844
2017-09-02T14:06:19.448Z,8160
2017-09-02T14:07:28.288Z,32640
2017-09-02T14:08:37.140Z,2444
2017-09-02T14:09:45.991Z,2664
2017-09-02T14:10:54.840Z,3760
2017-09-02T14:12:03.690Z,5144
2017-09-02T14:13:12.542Z,8476
2017-09-02T14:14:21.394Z,7880
2017-09-02T14:15:30.245Z,6932
2017-09-02T14:16:39.092Z,32480
2017-09-02T14:17:47.944Z,48032
2017-09-02T14:18:56.894Z,49408
2017-09-02T14:20:05.746Z,5184
2017-09-02T14:21:14.603Z,3968
2017-09-02T14:22:23.447Z,3956
2017-09-02T14:23:32.298Z,4640
2017-09-02T14:24:41.174Z,9164
2017-09-02T14:25:50.003Z,24704
2017-09-02T14:26:58.856Z,34784
2017-09-02T14:28:07.707Z,8620
2017-09-02T14:29:16.562Z,6452
2017-09-02T14:30:25.565Z,5480
2017-09-02T14:31:34.417Z,5352
2017-09-02T14:32:43.271Z,5680
2017-09-02T14:33:52.460Z,6652
2017-09-02T14:35:01.314Z,6988
2017-09-02T14:36:10.506Z,7124
2017-09-02T14:37:19.356Z,6680
2017-09-02T14:38:28.207Z,6640
2017-09-02T14:39:37.057Z,6424
2017-09-02T14:40:46.058Z,6024
2017-09-02T14:41:54.906Z,5588
2017-09-02T14:43:03.756Z,5292
2017-09-02T14:44:12.939Z,5144
2017-09-02T14:45:21.790Z,4992
2017-09-02T14:46:31.280Z,4764
2017-09-02T14:47:40.127Z,4560
2017-09-02T14:48:48.977Z,4396
2017-09-02T14:49:57.825Z,4220
2017-09-02T14:51:06.677Z,3976
2017-09-02T14:52:15.579Z,3836
2017-09-02T14:53:24.426Z,3808
2017-09-02T14:54:33.276Z,3876
2017-09-02T14:55:42.128Z,4060
2017-09-02T14:56:50.975Z,4364
2017-09-02T14:57:59.874Z,4696
2017-09-02T14:59:08.722Z,4988
2017-09-02T15:00:17.570Z,5268
2017-09-02T15:01:26.417Z,5668
2017-09-02T15:02:35.265Z,6208
2017-09-02T15:03:44.162Z,6844
2017-09-02T15:04:53.009Z,8356
2017-09-02T15:06:01.860Z,22208
2017-09-02T15:07:10.706Z,48320
2017-09-02T15:08:19.553Z,52224
2017-09-02T15:09:28.552Z,49472
2017-09-02T15:10:37.398Z,51520
2017-09-02T15:11:46.248Z,48064
2017-09-02T15:12:55.099Z,45632
2017-09-02T15:14:03.952Z,46624
2017-09-02T15:15:12.806Z,44832
2017-09-02T15:16:21.659Z,45760
2017-09-02T15:17:30.510Z,45536
2017-09-02T15:18:39.372Z,43808
2017-09-02T15:19:48.228Z,44800
2017-09-02T15:20:57.082Z,39200
2017-09-02T15:22:06.270Z,43552
2017-09-02T15:23:15.121Z,38944
2017-09-02T15:24:23.976Z,40576
2017-09-02T15:25:32.833Z,40288
2017-09-02T15:26:41.841Z,40512
2017-09-02T15:27:50.698Z,24384
2017-09-02T15:28:59.888Z,28960
2017-09-02T15:30:08.747Z,9308
2017-09-02T15:31:17.604Z,11152
2017-09-02T15:32:26.560Z,39616
2017-09-02T15:33:35.443Z,13620
2017-09-02T15:34:44.642Z,28192
2017-09-02T15:35:53.506Z,9676
2017-09-02T15:37:02.350Z,8296
2017-09-02T15:38:11.702Z,8536
2017-09-02T15:39:20.562Z,8160
2017-09-02T15:40:29.412Z,7812
2017-09-02T15:41:38.268Z,7508
2017-09-02T15:42:47.123Z,7188
2017-09-02T15:43:56.358Z,7036